Ferme-Neuve, Canada
Current Conditions -  °F | °C
As of 8:00 AM on Thursday 23 Oct 2014 (Local Time) from CYND Reporting Station
Few Clouds Few Clouds  
Wind Chill: 39°   Ceiling: Unl
Heat Index: 39°   Visibility: 15mi
Dew Point: 34°   Wind: 3mph
Humidity: 81%   Direction: 330°NNW
Pressure: 30.13"   Gusts: NA
Location:  46.7°N, 75.45°W
Report Text: CYND 231200Z 33003KT 15SM FEW060 04/01 A3013 RMK SC2 SLP205
Loading
Personal Weather Stations






























Interactive Weather Map
Tropical Storm Tracking
New forecast layout! Learn more

10-Day Weather Forecast

Advertisements
Track Severe Weather on mobile